createdAt,value
2017-10-19T00:00:32.279Z,17.2
2017-10-19T00:01:34.714Z,17.3
2017-10-19T00:02:37.137Z,17.2
2017-10-19T00:03:39.563Z,17.3
2017-10-19T00:04:42.008Z,17.2
2017-10-19T00:05:44.439Z,17.3
2017-10-19T00:06:47.224Z,17.3
2017-10-19T00:07:49.654Z,17.3
2017-10-19T00:08:52.083Z,17.3
2017-10-19T00:09:54.515Z,17.3
2017-10-19T00:10:56.953Z,17.3
2017-10-19T00:11:59.375Z,17.3
2017-10-19T00:13:01.803Z,17.2
2017-10-19T00:14:04.601Z,17.3
2017-10-19T00:15:07.029Z,17.3
2017-10-19T00:16:09.466Z,17.3
2017-10-19T00:17:11.895Z,17.2
2017-10-19T00:18:14.677Z,17.2
2017-10-19T00:19:17.105Z,17.2
2017-10-19T00:20:19.531Z,17.2
2017-10-19T00:21:22.326Z,17.2
2017-10-19T00:22:24.757Z,17.3
2017-10-19T00:23:27.178Z,17.3
2017-10-19T00:24:29.613Z,17.3
2017-10-19T00:25:32.046Z,17.3
2017-10-19T00:26:34.471Z,17.3
2017-10-19T00:27:37.279Z,17.3
2017-10-19T00:28:39.687Z,17.3
2017-10-19T00:29:42.120Z,17.4
2017-10-19T00:30:44.561Z,17.4
2017-10-19T00:31:46.987Z,17.4
2017-10-19T00:32:49.409Z,17.5
2017-10-19T00:33:51.843Z,17.5
2017-10-19T00:34:54.284Z,17.5
2017-10-19T00:35:56.718Z,17.5
2017-10-19T00:36:59.142Z,17.5
2017-10-19T00:38:01.559Z,17.5
2017-10-19T00:39:03.995Z,17.5
2017-10-19T00:40:06.422Z,17.5
2017-10-19T00:41:08.847Z,17.5
2017-10-19T00:42:11.279Z,17.5
2017-10-19T00:43:13.711Z,17.5
2017-10-19T00:44:16.507Z,17.5
2017-10-19T00:45:18.956Z,17.5
2017-10-19T00:46:21.385Z,17.5
2017-10-19T00:47:23.819Z,17.5
2017-10-19T00:48:26.251Z,17.5
2017-10-19T00:49:28.685Z,17.5
2017-10-19T00:50:31.476Z,17.5
2017-10-19T00:51:33.908Z,17.5
2017-10-19T00:52:36.355Z,17.5
2017-10-19T00:53:38.778Z,17.5
2017-10-19T00:54:41.205Z,17.5
2017-10-19T00:55:43.641Z,17.5
2017-10-19T00:56:46.075Z,17.5
2017-10-19T00:57:48.500Z,17.5
2017-10-19T00:58:50.936Z,17.5
2017-10-19T00:59:53.366Z,17.5
2017-10-19T01:00:55.796Z,17.4
2017-10-19T01:01:58.229Z,17.5
2017-10-19T01:03:00.656Z,17.5
2017-10-19T01:04:03.447Z,17.4
2017-10-19T01:05:05.884Z,17.4
2017-10-19T01:06:08.308Z,17.4
2017-10-19T01:07:11.108Z,17.4
2017-10-19T01:08:13.533Z,17.4
2017-10-19T01:09:15.958Z,17.4
2017-10-19T01:10:18.392Z,17.4
2017-10-19T01:11:20.832Z,17.4
2017-10-19T01:12:23.265Z,17.5
2017-10-19T01:13:25.706Z,17.4
2017-10-19T01:14:28.487Z,17.5
2017-10-19T01:15:30.918Z,17.4
2017-10-19T01:16:33.737Z,17.4
2017-10-19T01:17:36.170Z,17.5
2017-10-19T01:18:38.601Z,17.4
2017-10-19T01:19:41.398Z,17.5
2017-10-19T01:20:43.867Z,17.5
2017-10-19T01:21:46.272Z,17.4
2017-10-19T01:22:48.702Z,17.5
2017-10-19T01:23:51.135Z,17.4
2017-10-19T01:24:53.576Z,17.4
2017-10-19T01:25:56.002Z,17.5
2017-10-19T01:26:58.437Z,17.5
2017-10-19T01:28:00.863Z,17.5
2017-10-19T01:29:03.293Z,17.5
2017-10-19T01:30:05.737Z,17.5
2017-10-19T01:31:08.182Z,17.5
2017-10-19T01:32:10.596Z,17.5
2017-10-19T01:33:13.026Z,17.5
2017-10-19T01:34:15.454Z,17.5
2017-10-19T01:35:17.886Z,17.5
2017-10-19T01:36:20.320Z,17.5
2017-10-19T01:37:22.742Z,17.5
2017-10-19T01:38:25.174Z,17.5
2017-10-19T01:39:27.613Z,17.5
2017-10-19T01:40:30.051Z,17.4
2017-10-19T01:41:32.840Z,17.4
2017-10-19T01:42:35.268Z,17.4
2017-10-19T01:43:37.691Z,17.4
2017-10-19T01:44:40.128Z,17.4
2017-10-19T01:45:42.558Z,17.4
2017-10-19T01:46:44.982Z,17.4
2017-10-19T01:47:47.800Z,17.4
2017-10-19T01:48:50.231Z,17.4
2017-10-19T01:49:52.662Z,17.4
2017-10-19T01:50:55.090Z,17.4
2017-10-19T01:51:57.534Z,17.4
2017-10-19T01:52:59.962Z,17.4
2017-10-19T01:54:02.383Z,17.4
2017-10-19T01:55:04.820Z,17.4
2017-10-19T01:56:07.598Z,17.5
2017-10-19T01:57:10.029Z,17.4
2017-10-19T01:58:12.464Z,17.4
2017-10-19T01:59:14.891Z,17.4
2017-10-19T02:00:17.678Z,17.5
2017-10-19T02:01:20.126Z,17.5
2017-10-19T02:02:22.552Z,17.5
2017-10-19T02:03:24.997Z,17.5
2017-10-19T02:04:27.433Z,17.5
2017-10-19T02:05:29.854Z,17.5
2017-10-19T02:06:32.288Z,17.5
2017-10-19T02:07:34.719Z,17.5
2017-10-19T02:08:37.153Z,17.5
2017-10-19T02:09:39.585Z,17.5
2017-10-19T02:10:42.015Z,17.5
2017-10-19T02:11:44.439Z,17.5
2017-10-19T02:12:46.875Z,17.5
2017-10-19T02:13:49.307Z,17.5
2017-10-19T02:14:51.733Z,17.5
2017-10-19T02:15:54.537Z,17.4
2017-10-19T02:16:56.976Z,17.4
2017-10-19T02:17:59.399Z,17.4
2017-10-19T02:19:01.837Z,17.4
2017-10-19T02:20:04.266Z,17.5
2017-10-19T02:21:06.700Z,17.5
2017-10-19T02:22:09.134Z,17.5
2017-10-19T02:23:11.929Z,17.5
2017-10-19T02:24:14.349Z,17.5
2017-10-19T02:25:16.791Z,17.5
2017-10-19T02:26:19.218Z,17.5
2017-10-19T02:27:21.647Z,17.5
2017-10-19T02:28:24.433Z,17.5
2017-10-19T02:29:27.218Z,17.5
2017-10-19T02:30:29.649Z,17.6
2017-10-19T02:31:32.084Z,17.6
2017-10-19T02:32:34.519Z,17.6
2017-10-19T02:33:36.962Z,17.6
2017-10-19T02:34:39.425Z,17.6
2017-10-19T02:35:41.829Z,17.6
2017-10-19T02:36:44.254Z,17.6
2017-10-19T02:37:46.684Z,17.7
2017-10-19T02:38:49.122Z,17.6
2017-10-19T02:39:51.548Z,17.7
2017-10-19T02:40:53.978Z,17.7
2017-10-19T02:41:56.412Z,17.7
2017-10-19T02:42:58.834Z,17.7
2017-10-19T02:44:01.278Z,17.7
2017-10-19T02:45:03.710Z,17.7
2017-10-19T02:46:06.136Z,17.7
2017-10-19T02:47:08.573Z,17.7
2017-10-19T02:48:11.010Z,17.7
2017-10-19T02:49:13.439Z,17.7
2017-10-19T02:50:15.876Z,17.7
2017-10-19T02:51:18.305Z,17.7
2017-10-19T02:52:20.735Z,17.7
2017-10-19T02:53:23.155Z,17.7
2017-10-19T02:54:25.598Z,17.7
2017-10-19T02:55:28.373Z,17.7
2017-10-19T02:56:30.803Z,17.7
2017-10-19T02:57:33.230Z,17.7
2017-10-19T02:58:35.660Z,17.7
2017-10-19T02:59:38.094Z,17.7
2017-10-19T03:00:40.532Z,17.7
2017-10-19T03:01:42.954Z,17.7
2017-10-19T03:02:45.401Z,17.7
2017-10-19T03:03:48.226Z,17.8
2017-10-19T03:04:50.645Z,17.7
2017-10-19T03:05:53.070Z,17.7
2017-10-19T03:06:55.502Z,17.8
2017-10-19T03:07:57.930Z,17.8
2017-10-19T03:09:00.374Z,17.8
2017-10-19T03:10:02.795Z,17.8
2017-10-19T03:11:05.226Z,17.8
2017-10-19T03:12:07.668Z,17.8
2017-10-19T03:13:10.099Z,17.8
2017-10-19T03:14:12.532Z,17.8
2017-10-19T03:15:14.963Z,17.8
2017-10-19T03:16:17.751Z,17.9
2017-10-19T03:17:20.170Z,17.8
2017-10-19T03:18:22.602Z,17.8
2017-10-19T03:19:25.043Z,17.9
2017-10-19T03:20:27.470Z,17.8
2017-10-19T03:21:29.893Z,17.9
2017-10-19T03:22:32.331Z,17.8
2017-10-19T03:23:35.114Z,17.9
2017-10-19T03:24:37.558Z,17.9
2017-10-19T03:25:39.989Z,17.9
2017-10-19T03:26:42.410Z,17.8
2017-10-19T03:27:44.840Z,17.8
2017-10-19T03:28:47.275Z,17.9
2017-10-19T03:29:49.710Z,17.9
2017-10-19T03:30:52.142Z,17.9
2017-10-19T03:31:54.572Z,17.8
2017-10-19T03:32:57.007Z,17.8
2017-10-19T03:33:59.456Z,17.8
2017-10-19T03:35:01.885Z,17.8
2017-10-19T03:36:04.305Z,17.8
2017-10-19T03:37:06.744Z,17.8
2017-10-19T03:38:09.167Z,17.8
2017-10-19T03:39:11.606Z,17.8
2017-10-19T03:40:14.416Z,17.8
2017-10-19T03:41:17.196Z,17.8
2017-10-19T03:42:19.632Z,17.8
2017-10-19T03:43:22.427Z,17.8
2017-10-19T03:44:24.852Z,17.8
2017-10-19T03:45:27.285Z,17.8
2017-10-19T03:46:29.719Z,17.8
2017-10-19T03:47:32.509Z,17.8
2017-10-19T03:48:34.940Z,17.8
2017-10-19T03:49:37.377Z,17.9
2017-10-19T03:50:39.798Z,17.9
2017-10-19T03:51:42.230Z,17.9
2017-10-19T03:52:44.667Z,17.9
2017-10-19T03:53:47.097Z,17.9
2017-10-19T03:54:49.535Z,17.9
2017-10-19T03:55:51.961Z,17.9
2017-10-19T03:56:54.381Z,17.9
2017-10-19T03:57:56.821Z,17.9
2017-10-19T03:58:59.252Z,17.9
2017-10-19T04:00:01.676Z,17.9
2017-10-19T04:01:04.112Z,18
2017-10-19T04:02:06.533Z,18
2017-10-19T04:03:08.969Z,18
2017-10-19T04:04:11.759Z,18
2017-10-19T04:05:14.192Z,18
2017-10-19T04:06:16.626Z,18
2017-10-19T04:07:19.069Z,18
2017-10-19T04:08:21.495Z,18
2017-10-19T04:09:23.942Z,18
2017-10-19T04:10:26.369Z,18
2017-10-19T04:11:28.809Z,18
2017-10-19T04:12:31.237Z,18
2017-10-19T04:13:33.671Z,18
2017-10-19T04:14:36.098Z,18
2017-10-19T04:15:38.567Z,18
2017-10-19T04:16:41.320Z,18
2017-10-19T04:17:43.751Z,18
2017-10-19T04:18:46.564Z,17.9
2017-10-19T04:19:48.998Z,17.9
2017-10-19T04:20:51.426Z,17.9
2017-10-19T04:21:53.848Z,17.9
2017-10-19T04:22:56.284Z,17.9
2017-10-19T04:23:58.721Z,17.9
2017-10-19T04:25:01.154Z,17.9
2017-10-19T04:26:03.585Z,17.9
2017-10-19T04:27:06.016Z,17.9
2017-10-19T04:28:08.443Z,17.9
2017-10-19T04:29:10.884Z,17.9
2017-10-19T04:30:13.310Z,17.9
2017-10-19T04:31:15.740Z,17.9
2017-10-19T04:32:18.171Z,17.9
2017-10-19T04:33:20.949Z,17.9
2017-10-19T04:34:23.382Z,17.9
2017-10-19T04:35:25.824Z,17.9
2017-10-19T04:36:28.257Z,17.9
2017-10-19T04:37:30.687Z,17.9
2017-10-19T04:38:33.122Z,17.9
2017-10-19T04:39:35.552Z,17.9
2017-10-19T04:40:38.005Z,17.9
2017-10-19T04:41:40.439Z,17.9
2017-10-19T04:42:42.853Z,17.9
2017-10-19T04:43:45.285Z,17.9
2017-10-19T04:44:47.724Z,17.9
2017-10-19T04:45:50.149Z,17.9
2017-10-19T04:46:52.580Z,17.9
2017-10-19T04:47:55.028Z,17.9
2017-10-19T04:48:57.462Z,17.9
2017-10-19T04:49:59.892Z,17.9
2017-10-19T04:51:02.327Z,17.9
2017-10-19T04:52:04.760Z,17.9
2017-10-19T04:53:07.190Z,17.9
2017-10-19T04:54:09.621Z,17.9
2017-10-19T04:55:12.041Z,17.8
2017-10-19T04:56:14.476Z,17.8
2017-10-19T04:57:16.912Z,17.8
2017-10-19T04:58:19.335Z,17.8
2017-10-19T04:59:21.773Z,17.8
2017-10-19T05:00:24.563Z,17.8
2017-10-19T05:01:26.993Z,17.7
2017-10-19T05:02:29.433Z,17.7
2017-10-19T05:03:31.865Z,17.7
2017-10-19T05:04:34.288Z,17.7
2017-10-19T05:05:36.722Z,17.7
2017-10-19T05:06:39.154Z,17.7
2017-10-19T05:07:41.581Z,17.7
2017-10-19T05:08:44.029Z,17.6
2017-10-19T05:09:46.458Z,17.6
2017-10-19T05:10:48.890Z,17.6
2017-10-19T05:11:51.323Z,17.6
2017-10-19T05:12:53.762Z,17.6
2017-10-19T05:13:56.200Z,17.6
2017-10-19T05:14:58.996Z,17.6
2017-10-19T05:16:01.438Z,17.6
2017-10-19T05:17:03.869Z,17.6
2017-10-19T05:18:06.306Z,17.6
2017-10-19T05:19:09.089Z,17.6
2017-10-19T05:20:11.525Z,17.5
2017-10-19T05:21:13.941Z,17.5
2017-10-19T05:22:16.385Z,17.5
2017-10-19T05:23:18.809Z,17.5
2017-10-19T05:24:21.601Z,17.5
2017-10-19T05:25:24.032Z,17.4
2017-10-19T05:26:26.861Z,17.4
2017-10-19T05:27:30.776Z,17.4
2017-10-19T05:28:34.326Z,17.4
2017-10-19T05:29:37.538Z,17.3
2017-10-19T05:30:40.925Z,17.3
2017-10-19T05:31:45.610Z,17.3
2017-10-19T05:32:49.904Z,17.3
2017-10-19T05:33:56.530Z,17.2
2017-10-19T05:34:58.962Z,17.2
2017-10-19T05:36:01.389Z,17.2
2017-10-19T05:37:03.813Z,17.2
2017-10-19T05:38:06.239Z,17.2
2017-10-19T05:39:08.672Z,17.2
2017-10-19T05:40:11.117Z,17.2
2017-10-19T05:41:13.540Z,17.1
2017-10-19T05:42:15.969Z,17.1
2017-10-19T05:43:18.393Z,17.1
2017-10-19T05:44:21.188Z,17.1
2017-10-19T05:45:23.621Z,17.1
2017-10-19T05:46:26.406Z,17.1
2017-10-19T05:47:28.838Z,17
2017-10-19T05:48:31.274Z,17
2017-10-19T05:49:34.062Z,17
2017-10-19T05:50:36.498Z,17
2017-10-19T05:51:39.284Z,17
2017-10-19T05:52:41.720Z,17
2017-10-19T05:53:44.144Z,17
2017-10-19T05:54:46.565Z,16.9
2017-10-19T05:55:48.993Z,16.9
2017-10-19T05:56:51.441Z,17
2017-10-19T05:57:53.863Z,16.9
2017-10-19T05:58:56.292Z,16.9
2017-10-19T05:59:58.713Z,16.9
2017-10-19T06:01:01.143Z,16.9
2017-10-19T06:02:03.576Z,16.9
2017-10-19T06:03:06.009Z,17
2017-10-19T06:04:08.428Z,17
2017-10-19T06:05:10.859Z,17
2017-10-19T06:06:13.309Z,17
2017-10-19T06:07:15.741Z,17
2017-10-19T06:08:18.175Z,17
2017-10-19T06:09:20.601Z,17
2017-10-19T06:10:23.034Z,17
2017-10-19T06:11:25.469Z,17
2017-10-19T06:12:28.351Z,17
2017-10-19T06:13:31.048Z,17
2017-10-19T06:14:34.145Z,17
2017-10-19T06:15:38.751Z,17
2017-10-19T06:16:41.815Z,17
2017-10-19T06:17:45.214Z,17
2017-10-19T06:18:48.654Z,17
2017-10-19T06:19:52.065Z,17
2017-10-19T06:20:55.408Z,17
2017-10-19T06:21:58.614Z,17
2017-10-19T06:23:02.142Z,17
2017-10-19T06:24:05.537Z,16.9
2017-10-19T06:25:08.708Z,17
2017-10-19T06:26:11.901Z,17
2017-10-19T06:27:15.252Z,17
2017-10-19T06:28:18.699Z,17
2017-10-19T06:29:21.770Z,17
2017-10-19T06:30:25.633Z,17
2017-10-19T06:31:28.680Z,17
2017-10-19T06:32:31.508Z,17
2017-10-19T06:33:34.946Z,17
2017-10-19T06:34:38.468Z,17
2017-10-19T06:35:41.360Z,17
2017-10-19T06:36:44.452Z,17
2017-10-19T06:37:47.153Z,17
2017-10-19T06:38:51.197Z,17.1
2017-10-19T06:39:54.209Z,17.1
2017-10-19T06:40:57.965Z,17.1
2017-10-19T06:42:01.419Z,17.1
2017-10-19T06:43:04.905Z,17.1
2017-10-19T06:44:07.629Z,17.1
2017-10-19T06:45:10.056Z,17.1
2017-10-19T06:46:12.482Z,17.1
2017-10-19T06:47:14.921Z,17.2
2017-10-19T06:48:17.351Z,17.1
2017-10-19T06:49:19.785Z,17.1
2017-10-19T06:50:22.216Z,17.1
2017-10-19T06:51:24.648Z,17.2
2017-10-19T06:52:27.086Z,17.1
2017-10-19T06:53:29.516Z,17.1
2017-10-19T06:54:31.938Z,17.2
2017-10-19T06:55:34.372Z,17.2
2017-10-19T06:56:36.811Z,17.2
2017-10-19T06:57:39.245Z,17.2
2017-10-19T06:58:42.502Z,17.2
2017-10-19T06:59:46.815Z,17.2
2017-10-19T07:00:51.637Z,17.2
2017-10-19T07:01:55.908Z,17.2
2017-10-19T07:03:01.382Z,17.2
2017-10-19T07:04:03.801Z,17.2
2017-10-19T07:05:06.238Z,17.2
2017-10-19T07:06:08.674Z,17.2
2017-10-19T07:07:11.094Z,17.2
2017-10-19T07:08:13.885Z,17.3
2017-10-19T07:09:16.675Z,17.3
2017-10-19T07:10:19.104Z,17.3
2017-10-19T07:11:21.902Z,17.3
2017-10-19T07:12:24.332Z,17.3
2017-10-19T07:13:27.127Z,17.3
2017-10-19T07:14:29.561Z,17.3
2017-10-19T07:15:31.995Z,17.4
2017-10-19T07:16:34.423Z,17.4
2017-10-19T07:17:37.207Z,17.4
2017-10-19T07:18:39.634Z,17.5
2017-10-19T07:19:42.447Z,17.5
2017-10-19T07:20:44.875Z,17.6
2017-10-19T07:21:47.665Z,17.6
2017-10-19T07:22:50.094Z,17.7
2017-10-19T07:23:52.526Z,17.7
2017-10-19T07:24:54.950Z,17.8
2017-10-19T07:25:57.384Z,17.8
2017-10-19T07:26:59.815Z,17.9
2017-10-19T07:28:02.251Z,17.9
2017-10-19T07:29:04.671Z,17.9
2017-10-19T07:30:07.119Z,18
2017-10-19T07:31:09.552Z,18
2017-10-19T07:32:11.992Z,18.1
2017-10-19T07:33:14.412Z,18.1
2017-10-19T07:34:16.846Z,18.2
2017-10-19T07:35:19.272Z,18.3
2017-10-19T07:36:21.718Z,18.3
2017-10-19T07:37:24.140Z,18.4
2017-10-19T07:38:26.575Z,18.4
2017-10-19T07:39:29.017Z,18.5
2017-10-19T07:40:31.451Z,18.6
2017-10-19T07:41:33.891Z,18.6
2017-10-19T07:42:36.316Z,18.7
2017-10-19T07:43:38.746Z,18.7
2017-10-19T07:44:41.183Z,18.8
2017-10-19T07:45:43.622Z,18.9
2017-10-19T07:46:46.049Z,19
2017-10-19T07:47:48.486Z,19.1
2017-10-19T07:48:50.913Z,19.2
2017-10-19T07:49:53.701Z,19.3
2017-10-19T07:50:56.137Z,19.4
2017-10-19T07:51:58.576Z,19.5
2017-10-19T07:53:01.007Z,19.6
2017-10-19T07:54:03.458Z,19.8
2017-10-19T07:55:05.888Z,19.9
2017-10-19T07:56:08.323Z,20
2017-10-19T07:57:11.128Z,20.1
2017-10-19T07:58:13.916Z,20.3
2017-10-19T07:59:16.382Z,20.4
2017-10-19T08:00:18.789Z,20.4
2017-10-19T08:01:21.217Z,20.5
2017-10-19T08:02:23.652Z,20.6
2017-10-19T08:03:26.118Z,20.6
2017-10-19T08:04:28.584Z,20.7
2017-10-19T08:05:31.017Z,20.7
2017-10-19T08:06:33.458Z,20.7
2017-10-19T08:07:35.891Z,20.7
2017-10-19T08:08:38.333Z,20.7
2017-10-19T08:09:40.760Z,20.7
2017-10-19T08:10:43.187Z,20.6
2017-10-19T08:11:45.618Z,20.6
2017-10-19T08:12:48.421Z,20.5
2017-10-19T08:13:50.851Z,20.5
2017-10-19T08:14:53.277Z,20.4
2017-10-19T08:15:56.063Z,20.3
2017-10-19T08:16:58.507Z,20.3
2017-10-19T08:18:00.935Z,20.2
2017-10-19T08:19:03.374Z,20.2
2017-10-19T08:20:05.817Z,20.2
2017-10-19T08:21:08.253Z,20.3
2017-10-19T08:22:10.699Z,20.3
2017-10-19T08:23:13.125Z,20.3
2017-10-19T08:24:15.555Z,20.3
2017-10-19T08:25:17.992Z,20.3
2017-10-19T08:26:20.426Z,20.4
2017-10-19T08:27:22.850Z,20.4
2017-10-19T08:28:25.291Z,20.4
2017-10-19T08:29:28.087Z,20.5
2017-10-19T08:30:30.521Z,20.5
2017-10-19T08:31:32.958Z,20.6
2017-10-19T08:32:35.391Z,20.7
2017-10-19T08:33:37.826Z,20.8
2017-10-19T08:34:40.274Z,20.9
2017-10-19T08:35:42.696Z,20.9
2017-10-19T08:36:45.148Z,21
2017-10-19T08:37:47.581Z,21.2
2017-10-19T08:38:50.023Z,21.3
2017-10-19T08:39:52.453Z,21.4
2017-10-19T08:40:54.890Z,21.6
2017-10-19T08:41:57.331Z,21.7
2017-10-19T08:42:59.758Z,21.8
2017-10-19T08:44:02.208Z,21.9
2017-10-19T08:45:04.647Z,22
2017-10-19T08:46:07.083Z,22.1
2017-10-19T08:47:09.521Z,22.3
2017-10-19T08:48:11.966Z,22.4
2017-10-19T08:49:14.391Z,22.5
2017-10-19T08:50:16.840Z,22.6
2017-10-19T08:51:19.263Z,22.7
2017-10-19T08:52:21.705Z,22.9
2017-10-19T08:53:24.503Z,23
2017-10-19T08:54:27.297Z,23.1
2017-10-19T08:55:29.735Z,23.2
2017-10-19T08:56:32.180Z,23.3
2017-10-19T08:57:34.615Z,23.4
2017-10-19T08:58:37.060Z,23.6
2017-10-19T08:59:39.853Z,23.7
2017-10-19T09:00:42.281Z,23.8
2017-10-19T09:01:44.729Z,23.9
2017-10-19T09:02:47.167Z,24.1
2017-10-19T09:03:49.614Z,24.2
2017-10-19T09:04:52.054Z,24.3
2017-10-19T09:05:54.499Z,24.5
2017-10-19T09:06:56.950Z,24.6
2017-10-19T09:07:59.406Z,24.7
2017-10-19T09:09:02.221Z,24.9
2017-10-19T09:10:04.658Z,25
2017-10-19T09:11:07.097Z,25.1
2017-10-19T09:12:09.538Z,25.2
2017-10-19T09:13:11.983Z,25.3
2017-10-19T09:14:14.420Z,25.4
2017-10-19T09:15:16.879Z,25.5
2017-10-19T09:16:19.320Z,25.5
2017-10-19T09:17:21.898Z,25.6
2017-10-19T09:18:24.345Z,25.6
2017-10-19T09:19:26.785Z,25.7
2017-10-19T09:20:29.224Z,25.7
2017-10-19T09:21:31.700Z,25.7
2017-10-19T09:22:34.098Z,25.7
2017-10-19T09:23:36.547Z,25.7
2017-10-19T09:24:38.999Z,25.7
2017-10-19T09:25:41.436Z,25.7
2017-10-19T09:26:43.883Z,25.7
2017-10-19T09:27:46.330Z,25.7
2017-10-19T09:28:48.767Z,25.7
2017-10-19T09:29:51.213Z,25.7
2017-10-19T09:30:53.688Z,25.8
2017-10-19T09:31:56.449Z,25.8
2017-10-19T09:32:58.920Z,25.7
2017-10-19T09:34:01.333Z,25.7
2017-10-19T09:35:03.772Z,25.6
2017-10-19T09:36:06.224Z,25.5
2017-10-19T09:37:08.664Z,25.4
2017-10-19T09:38:11.109Z,25.3
2017-10-19T09:39:13.908Z,25.1
2017-10-19T09:40:16.348Z,25.1
2017-10-19T09:41:18.791Z,25
2017-10-19T09:42:21.225Z,24.9
2017-10-19T09:43:23.681Z,24.8
2017-10-19T09:44:26.126Z,24.7
2017-10-19T09:45:28.560Z,24.7
2017-10-19T09:46:30.999Z,24.5
2017-10-19T09:47:33.438Z,24.4
2017-10-19T09:48:35.872Z,24.4
2017-10-19T09:49:38.325Z,24.3
2017-10-19T09:50:40.757Z,24.2
2017-10-19T09:51:43.198Z,24.1
2017-10-19T09:52:45.647Z,24.1
2017-10-19T09:53:48.090Z,24
2017-10-19T09:54:50.882Z,24
2017-10-19T09:55:53.323Z,23.9
2017-10-19T09:56:55.757Z,23.9
2017-10-19T09:57:58.210Z,23.8
2017-10-19T09:59:00.647Z,23.7
2017-10-19T10:00:03.427Z,23.6
2017-10-19T10:01:05.866Z,23.5
2017-10-19T10:02:08.311Z,23.4
2017-10-19T10:03:10.737Z,23.4
2017-10-19T10:04:13.187Z,23.4
2017-10-19T10:05:15.605Z,23.4
2017-10-19T10:06:18.043Z,23.3
2017-10-19T10:07:20.492Z,23.3
2017-10-19T10:08:22.931Z,23.3
2017-10-19T10:09:25.374Z,23.3
2017-10-19T10:10:27.818Z,23.4
2017-10-19T10:11:30.253Z,23.5
2017-10-19T10:12:32.698Z,23.6
2017-10-19T10:13:35.485Z,23.8
2017-10-19T10:14:38.287Z,23.9
2017-10-19T10:15:40.732Z,24
2017-10-19T10:16:43.537Z,24.2
2017-10-19T10:17:46.339Z,24.3
2017-10-19T10:18:48.776Z,24.5
2017-10-19T10:19:51.222Z,24.7
2017-10-19T10:20:53.663Z,24.9
2017-10-19T10:21:56.101Z,25.1
2017-10-19T10:22:58.541Z,25.3
2017-10-19T10:24:00.995Z,25.5
2017-10-19T10:25:04.149Z,25.7
2017-10-19T10:26:06.590Z,25.8
2017-10-19T10:27:09.044Z,26
2017-10-19T10:28:11.485Z,26.1
2017-10-19T10:29:14.293Z,26.2
2017-10-19T10:30:16.734Z,26.3
2017-10-19T10:31:19.172Z,26.4
2017-10-19T10:32:21.620Z,26.5
2017-10-19T10:33:24.412Z,26.5
2017-10-19T10:34:26.853Z,26.6
2017-10-19T10:35:29.291Z,26.5
2017-10-19T10:36:31.729Z,26.6
2017-10-19T10:37:34.176Z,26.6
2017-10-19T10:38:36.632Z,26.7
2017-10-19T10:39:39.072Z,26.8
2017-10-19T10:40:41.516Z,27
2017-10-19T10:41:44.331Z,27.1
2017-10-19T10:42:46.775Z,27.1
2017-10-19T10:43:49.227Z,27.2
2017-10-19T10:44:52.029Z,27.3
2017-10-19T10:45:54.469Z,27.4
2017-10-19T10:46:57.271Z,27.5
2017-10-19T10:47:59.703Z,27.6
2017-10-19T10:49:02.153Z,27.7
2017-10-19T10:50:04.605Z,27.8
2017-10-19T10:51:07.044Z,27.9
2017-10-19T10:52:09.492Z,28
2017-10-19T10:53:11.932Z,28.1
2017-10-19T10:54:14.383Z,28.2
2017-10-19T10:55:16.829Z,28.3
2017-10-19T10:56:19.268Z,28.4
2017-10-19T10:57:21.716Z,28.5
2017-10-19T10:58:24.165Z,28.6
2017-10-19T10:59:26.960Z,28.7
2017-10-19T11:00:29.403Z,28.8
2017-10-19T11:01:31.853Z,28.8
2017-10-19T11:02:34.288Z,28.8
2017-10-19T11:03:36.748Z,28.8
2017-10-19T11:04:39.184Z,28.8
2017-10-19T11:05:41.623Z,28.7
2017-10-19T11:06:44.080Z,28.8
2017-10-19T11:07:46.525Z,28.8
2017-10-19T11:08:48.976Z,28.8
2017-10-19T11:09:51.428Z,28.7
2017-10-19T11:10:53.867Z,28.7
2017-10-19T11:11:56.307Z,28.6
2017-10-19T11:12:58.761Z,28.5
2017-10-19T11:14:01.209Z,28.5
2017-10-19T11:15:03.660Z,28.4
2017-10-19T11:16:06.453Z,28.3
2017-10-19T11:17:08.896Z,28.2
2017-10-19T11:18:11.340Z,28.1
2017-10-19T11:19:13.785Z,28
2017-10-19T11:20:16.220Z,28
2017-10-19T11:21:18.671Z,28
2017-10-19T11:22:21.110Z,28
2017-10-19T11:23:23.564Z,28
2017-10-19T11:24:26.006Z,28
2017-10-19T11:25:28.442Z,28
2017-10-19T11:26:30.884Z,28
2017-10-19T11:27:33.331Z,28
2017-10-19T11:28:35.771Z,28.1
2017-10-19T11:29:38.220Z,28.1
2017-10-19T11:30:40.653Z,28.2
2017-10-19T11:31:43.098Z,28.3
2017-10-19T11:32:45.543Z,28.4
2017-10-19T11:33:47.989Z,28.4
2017-10-19T11:34:50.429Z,28.5
2017-10-19T11:35:52.871Z,28.5
2017-10-19T11:36:55.331Z,28.4
2017-10-19T11:37:57.770Z,28.4
2017-10-19T11:39:00.599Z,28.3
2017-10-19T11:40:03.010Z,28.3
2017-10-19T11:41:05.459Z,28.2
2017-10-19T11:42:08.269Z,28.2
2017-10-19T11:43:10.719Z,28.1
2017-10-19T11:44:13.166Z,28
2017-10-19T11:45:15.605Z,27.9
2017-10-19T11:46:18.414Z,27.7
2017-10-19T11:47:20.853Z,27.6
2017-10-19T11:48:23.305Z,27.5
2017-10-19T11:49:25.748Z,27.4
2017-10-19T11:50:28.194Z,27.3
2017-10-19T11:51:30.635Z,27.1
2017-10-19T11:52:33.461Z,27.1
2017-10-19T11:53:35.903Z,27
2017-10-19T11:54:38.347Z,27
2017-10-19T11:55:40.793Z,27
2017-10-19T11:56:43.591Z,27
2017-10-19T11:57:46.036Z,27
2017-10-19T11:58:48.472Z,27
2017-10-19T11:59:50.916Z,27
2017-10-19T12:00:53.366Z,27.1
2017-10-19T12:01:55.819Z,27.1
2017-10-19T12:02:58.613Z,27.1
2017-10-19T12:04:01.069Z,27.1
2017-10-19T12:05:03.867Z,27.1
2017-10-19T12:06:06.668Z,27.2
2017-10-19T12:07:09.114Z,27.3
2017-10-19T12:08:11.549Z,27.4
2017-10-19T12:09:13.991Z,27.5
2017-10-19T12:10:16.428Z,27.6
2017-10-19T12:11:18.885Z,27.8
2017-10-19T12:12:21.332Z,27.9
2017-10-19T12:13:23.784Z,28
2017-10-19T12:14:26.222Z,28.2
2017-10-19T12:15:28.672Z,28.3
2017-10-19T12:16:31.113Z,28.4
2017-10-19T12:17:33.553Z,28.5
2017-10-19T12:18:35.990Z,28.5
2017-10-19T12:19:38.436Z,28.6
2017-10-19T12:20:40.893Z,28.6
2017-10-19T12:21:43.338Z,28.7
2017-10-19T12:22:45.784Z,28.7
2017-10-19T12:23:48.230Z,28.8
2017-10-19T12:24:50.678Z,28.9
2017-10-19T12:25:53.497Z,28.9
2017-10-19T12:26:55.943Z,29
2017-10-19T12:27:58.388Z,29.1
2017-10-19T12:29:00.831Z,29
2017-10-19T12:30:03.285Z,29
2017-10-19T12:31:05.731Z,29
2017-10-19T12:32:08.179Z,29
2017-10-19T12:33:11.351Z,29.1
2017-10-19T12:34:13.802Z,29.1
2017-10-19T12:35:16.627Z,29.1
2017-10-19T12:36:19.434Z,29.2
2017-10-19T12:37:21.881Z,29.2
2017-10-19T12:38:24.327Z,29.2
2017-10-19T12:39:26.772Z,29.2
2017-10-19T12:40:29.582Z,29.1
2017-10-19T12:41:32.035Z,29.1
2017-10-19T12:42:34.477Z,29.1
2017-10-19T12:43:36.933Z,29.1
2017-10-19T12:44:39.370Z,29.1
2017-10-19T12:45:41.817Z,29.1
2017-10-19T12:46:44.272Z,29.1
2017-10-19T12:47:46.708Z,29.1
2017-10-19T12:48:49.159Z,29.1
2017-10-19T12:49:51.610Z,29.1
2017-10-19T12:50:54.056Z,29.1
2017-10-19T12:51:56.901Z,29.1
2017-10-19T12:52:59.349Z,29.1
2017-10-19T12:54:01.785Z,29
2017-10-19T12:55:04.248Z,28.9
2017-10-19T12:56:07.057Z,28.8
2017-10-19T12:57:09.500Z,28.8
2017-10-19T12:58:11.951Z,28.7
2017-10-19T12:59:14.388Z,28.6
2017-10-19T13:00:17.189Z,28.6
2017-10-19T13:01:19.646Z,28.6
2017-10-19T13:02:22.081Z,28.6
2017-10-19T13:03:24.551Z,28.6
2017-10-19T13:04:27.016Z,28.6
2017-10-19T13:05:29.457Z,28.6
2017-10-19T13:06:31.908Z,28.6
2017-10-19T13:07:34.355Z,28.6
2017-10-19T13:08:36.803Z,28.5
2017-10-19T13:09:39.248Z,28.5
2017-10-19T13:10:42.056Z,28.5
2017-10-19T13:11:44.848Z,28.5
2017-10-19T13:12:47.285Z,28.4
2017-10-19T13:13:49.731Z,28.4
2017-10-19T13:14:52.176Z,28.4
2017-10-19T13:15:54.627Z,28.4
2017-10-19T13:16:57.079Z,28.4
2017-10-19T13:17:59.526Z,28.4
2017-10-19T13:19:01.970Z,28.3
2017-10-19T13:20:04.426Z,28.3
2017-10-19T13:21:06.874Z,28.2
2017-10-19T13:22:09.317Z,28.1
2017-10-19T13:23:11.758Z,28
2017-10-19T13:24:14.198Z,27.9
2017-10-19T13:25:16.648Z,27.9
2017-10-19T13:26:19.100Z,27.8
2017-10-19T13:27:21.533Z,27.8
2017-10-19T13:28:23.975Z,27.7
2017-10-19T13:29:26.419Z,27.7
2017-10-19T13:30:28.863Z,27.6
2017-10-19T13:31:31.314Z,27.5
2017-10-19T13:32:33.757Z,27.5
2017-10-19T13:33:36.194Z,27.4
2017-10-19T13:34:38.648Z,27.3
2017-10-19T13:35:41.093Z,27.2
2017-10-19T13:36:43.532Z,27.1
2017-10-19T13:37:45.977Z,27.1
2017-10-19T13:38:48.428Z,27
2017-10-19T13:39:50.876Z,27
2017-10-19T13:40:53.319Z,26.9
2017-10-19T13:41:55.751Z,26.9
2017-10-19T13:42:58.193Z,26.8
2017-10-19T13:44:00.650Z,26.7
2017-10-19T13:45:03.089Z,26.6
2017-10-19T13:46:05.534Z,26.5
2017-10-19T13:47:07.979Z,26.5
2017-10-19T13:48:10.421Z,26.4
2017-10-19T13:49:12.877Z,26.3
2017-10-19T13:50:15.316Z,26.2
2017-10-19T13:51:17.749Z,26.1
2017-10-19T13:52:20.564Z,26.1
2017-10-19T13:53:23.002Z,26
2017-10-19T13:54:25.436Z,25.9
2017-10-19T13:55:27.883Z,25.8
2017-10-19T13:56:30.319Z,25.7
2017-10-19T13:57:32.761Z,25.7
2017-10-19T13:58:35.202Z,25.6
2017-10-19T13:59:37.636Z,25.6